sensor_id;sensor_type;location;lat;lon;timestamp;pressure;altitude;pressure_sealevel;temperature;humidity
71770;BME280;66386;52.122;5.420;2024-03-02T00:00:12;99842.50;;;7.78;100.00
71770;BME280;66386;52.122;5.420;2024-03-02T00:02:43;99833.81;;;7.82;100.00
71770;BME280;66386;52.122;5.420;2024-03-02T00:05:11;99822.84;;;7.80;100.00
71770;BME280;66386;52.122;5.420;2024-03-02T00:07:41;99830.44;;;7.81;100.00
71770;BME280;66386;52.122;5.420;2024-03-02T00:10:10;99821.03;;;7.82;100.00
71770;BME280;66386;52.122;5.420;2024-03-02T00:12:38;99829.53;;;7.82;100.00
71770;BME280;66386;52.122;5.420;2024-03-02T00:15:13;99841.50;;;7.82;100.00
71770;BME280;66386;52.122;5.420;2024-03-02T00:17:45;99846.41;;;7.86;100.00
71770;BME280;66386;52.122;5.420;2024-03-02T00:20:17;99849.69;;;7.90;100.00
71770;BME280;66386;52.122;5.420;2024-03-02T00:22:48;99852.19;;;7.92;100.00
71770;BME280;66386;52.122;5.420;2024-03-02T00:25:16;99865.72;;;7.94;100.00
71770;BME280;66386;52.122;5.420;2024-03-02T00:27:47;99869.97;;;7.95;100.00
71770;BME280;66386;52.122;5.420;2024-03-02T00:33:13;99883.44;;;7.98;100.00
71770;BME280;66386;52.122;5.420;2024-03-02T00:35:44;99905.53;;;8.01;100.00
71770;BME280;66386;52.122;5.420;2024-03-02T00:38:10;99914.16;;;7.98;100.00
71770;BME280;66386;52.122;5.420;2024-03-02T00:40:37;99912.56;;;7.96;100.00
71770;BME280;66386;52.122;5.420;2024-03-02T00:43:04;99924.59;;;7.94;100.00
71770;BME280;66386;52.122;5.420;2024-03-02T00:45:31;99942.63;;;7.91;100.00
71770;BME280;66386;52.122;5.420;2024-03-02T00:47:58;99938.44;;;7.88;100.00
71770;BME280;66386;52.122;5.420;2024-03-02T00:50:24;99937.69;;;7.86;100.00
71770;BME280;66386;52.122;5.420;2024-03-02T00:52:56;99930.28;;;7.80;100.00
71770;BME280;66386;52.122;5.420;2024-03-02T00:55:23;99929.53;;;7.76;100.00
71770;BME280;66386;52.122;5.420;2024-03-02T00:57:49;99936.59;;;7.71;100.00
71770;BME280;66386;52.122;5.420;2024-03-02T01:00:16;99943.66;;;7.64;100.00
71770;BME280;66386;52.122;5.420;2024-03-02T01:02:44;99955.00;;;7.57;100.00
71770;BME280;66386;52.122;5.420;2024-03-02T01:05:12;99945.97;;;7.48;100.00
71770;BME280;66386;52.122;5.420;2024-03-02T01:07:39;99957.25;;;7.43;100.00
71770;BME280;66386;52.122;5.420;2024-03-02T01:10:05;99956.56;;;7.39;100.00
71770;BME280;66386;52.122;5.420;2024-03-02T01:12:32;99956.78;;;7.33;100.00
71770;BME280;66386;52.122;5.420;2024-03-02T01:14:58;99962.06;;;7.28;100.00
71770;BME280;66386;52.122;5.420;2024-03-02T01:17:25;99947.84;;;7.21;100.00
71770;BME280;66386;52.122;5.420;2024-03-02T01:19:51;99946.31;;;7.17;100.00
71770;BME280;66386;52.122;5.420;2024-03-02T01:22:18;99949.06;;;7.11;100.00
71770;BME280;66386;52.122;5.420;2024-03-02T01:24:51;99957.78;;;7.05;100.00
71770;BME280;66386;52.122;5.420;2024-03-02T01:27:18;99961.44;;;6.99;100.00
71770;BME280;66386;52.122;5.420;2024-03-02T01:29:45;99976.84;;;6.96;100.00
71770;BME280;66386;52.122;5.420;2024-03-02T01:32:11;99965.97;;;6.91;100.00
71770;BME280;66386;52.122;5.420;2024-03-02T01:34:38;99965.97;;;6.91;100.00
71770;BME280;66386;52.122;5.420;2024-03-02T01:37:04;99960.97;;;6.88;100.00
71770;BME280;66386;52.122;5.420;2024-03-02T01:39:31;99959.34;;;6.86;100.00
71770;BME280;66386;52.122;5.420;2024-03-02T01:41:58;99975.56;;;6.85;100.00
71770;BME280;66386;52.122;5.420;2024-03-02T01:44:24;99967.94;;;6.83;100.00
71770;BME280;66386;52.122;5.420;2024-03-02T01:46:51;99966.31;;;6.82;100.00
71770;BME280;66386;52.122;5.420;2024-03-02T01:49:17;99968.91;;;6.80;100.00
71770;BME280;66386;52.122;5.420;2024-03-02T01:51:45;99979.16;;;6.79;100.00
71770;BME280;66386;52.122;5.420;2024-03-02T01:54:12;99981.75;;;6.77;100.00
71770;BME280;66386;52.122;5.420;2024-03-02T01:56:39;99984.31;;;6.77;100.00
71770;BME280;66386;52.122;5.420;2024-03-02T01:59:06;99974.22;;;6.74;100.00
71770;BME280;66386;52.122;5.420;2024-03-02T02:01:32;99975.94;;;6.74;100.00
71770;BME280;66386;52.122;5.420;2024-03-02T02:03:59;99976.06;;;6.71;100.00
71770;BME280;66386;52.122;5.420;2024-03-02T02:06:27;99976.09;;;6.69;100.00
71770;BME280;66386;52.122;5.420;2024-03-02T02:08:53;99960.00;;;6.67;100.00
71770;BME280;66386;52.122;5.420;2024-03-02T02:11:20;99976.22;;;6.66;100.00
71770;BME280;66386;52.122;5.420;2024-03-02T02:13:46;99974.53;;;6.65;100.00
71770;BME280;66386;52.122;5.420;2024-03-02T02:16:13;99985.69;;;6.62;100.00
71770;BME280;66386;52.122;5.420;2024-03-02T02:18:39;99981.50;;;6.61;100.00
71770;BME280;66386;52.122;5.420;2024-03-02T02:21:06;99975.63;;;6.58;100.00
71770;BME280;66386;52.122;5.420;2024-03-02T02:23:32;99980.78;;;6.56;100.00
71770;BME280;66386;52.122;5.420;2024-03-02T02:25:59;99986.00;;;6.53;100.00
71770;BME280;66386;52.122;5.420;2024-03-02T02:28:25;99971.72;;;6.47;100.00
71770;BME280;66386;52.122;5.420;2024-03-02T02:30:54;99971.78;;;6.46;100.00
71770;BME280;66386;52.122;5.420;2024-03-02T02:33:22;99972.78;;;6.42;100.00
71770;BME280;66386;52.122;5.420;2024-03-02T02:35:49;99966.91;;;6.40;100.00
71770;BME280;66386;52.122;5.420;2024-03-02T02:38:16;99971.19;;;6.38;100.00
71770;BME280;66386;52.122;5.420;2024-03-02T02:40:42;99980.63;;;6.36;100.00
71770;BME280;66386;52.122;5.420;2024-03-02T02:43:09;99989.28;;;6.32;100.00
71770;BME280;66386;52.122;5.420;2024-03-02T02:45:35;99982.50;;;6.31;100.00
71770;BME280;66386;52.122;5.420;2024-03-02T02:48:02;99980.00;;;6.29;100.00
71770;BME280;66386;52.122;5.420;2024-03-02T02:50:29;99984.31;;;6.27;100.00
71770;BME280;66386;52.122;5.420;2024-03-02T02:52:56;99981.03;;;6.23;100.00
71770;BME280;66386;52.122;5.420;2024-03-02T02:58:11;99987.91;;;6.21;100.00
71770;BME280;66386;52.122;5.420;2024-03-02T03:00:38;99994.00;;;6.17;100.00
71770;BME280;66386;52.122;5.420;2024-03-02T03:03:05;99987.22;;;6.16;100.00
71770;BME280;66386;52.122;5.420;2024-03-02T03:05:31;99994.03;;;6.16;100.00
71770;BME280;66386;52.122;5.420;2024-03-02T03:07:58;99985.63;;;6.14;100.00
71770;BME280;66386;52.122;5.420;2024-03-02T03:10:24;99983.13;;;6.12;100.00
71770;BME280;66386;52.122;5.420;2024-03-02T03:12:52;99986.53;;;6.11;100.00
71770;BME280;66386;52.122;5.420;2024-03-02T03:15:19;99991.69;;;6.09;100.00
71770;BME280;66386;52.122;5.420;2024-03-02T03:17:49;99984.09;;;6.08;100.00
71770;BME280;66386;52.122;5.420;2024-03-02T03:20:15;99986.66;;;6.08;100.00
71770;BME280;66386;52.122;5.420;2024-03-02T03:22:42;99982.41;;;6.07;100.00
71770;BME280;66386;52.122;5.420;2024-03-02T03:25:09;99990.22;;;6.02;100.00
71770;BME280;66386;52.122;5.420;2024-03-02T03:27:35;99996.25;;;6.00;100.00
71770;BME280;66386;52.122;5.420;2024-03-02T03:30:03;100000.56;;;5.98;100.00
71770;BME280;66386;52.122;5.420;2024-03-02T03:32:29;100002.28;;;5.97;100.00
71770;BME280;66386;52.122;5.420;2024-03-02T03:34:56;100004.84;;;5.95;100.00
71770;BME280;66386;52.122;5.420;2024-03-02T03:37:23;100008.38;;;5.91;100.00
71770;BME280;66386;52.122;5.420;2024-03-02T03:39:50;100000.78;;;5.90;100.00
71770;BME280;66386;52.122;5.420;2024-03-02T03:42:17;100004.22;;;5.89;100.00
71770;BME280;66386;52.122;5.420;2024-03-02T03:44:43;100003.34;;;5.88;100.00
71770;BME280;66386;52.122;5.420;2024-03-02T03:47:09;100004.16;;;5.90;100.00
71770;BME280;66386;52.122;5.420;2024-03-02T03:49:36;100002.47;;;5.89;100.00
71770;BME280;66386;52.122;5.420;2024-03-02T03:52:03;100016.88;;;5.92;100.00
71770;BME280;66386;52.122;5.420;2024-03-02T03:54:30;100021.03;;;5.94;100.00
71770;BME280;66386;52.122;5.420;2024-03-02T03:56:56;100015.88;;;5.98;100.00
71770;BME280;66386;52.122;5.420;2024-03-02T03:59:23;100014.94;;;6.00;100.00
71770;BME280;66386;52.122;5.420;2024-03-02T04:01:50;100013.19;;;6.02;100.00
71770;BME280;66386;52.122;5.420;2024-03-02T04:04:16;100009.75;;;6.03;100.00
71770;BME280;66386;52.122;5.420;2024-03-02T04:06:43;100008.03;;;6.04;100.00
71770;BME280;66386;52.122;5.420;2024-03-02T04:09:10;100018.19;;;6.05;100.00
71770;BME280;66386;52.122;5.420;2024-03-02T04:11:37;100016.44;;;6.06;100.00
71770;BME280;66386;52.122;5.420;2024-03-02T04:14:03;100016.41;;;6.07;100.00
71770;BME280;66386;52.122;5.420;2024-03-02T04:16:32;100024.06;;;6.07;100.00
71770;BME280;66386;52.122;5.420;2024-03-02T04:18:59;100030.84;;;6.08;100.00
71770;BME280;66386;52.122;5.420;2024-03-02T04:21:25;100028.28;;;6.08;100.00
71770;BME280;66386;52.122;5.420;2024-03-02T04:23:52;100027.47;;;6.08;100.00
71770;BME280;66386;52.122;5.420;2024-03-02T04:26:19;100026.59;;;6.07;100.00
71770;BME280;66386;52.122;5.420;2024-03-02T04:28:48;100023.19;;;6.08;100.00
71770;BME280;66386;52.122;5.420;2024-03-02T04:31:15;100023.13;;;6.10;100.00
71770;BME280;66386;52.122;5.420;2024-03-02T04:33:42;100029.91;;;6.11;100.00
71770;BME280;66386;52.122;5.420;2024-03-02T04:36:09;100029.91;;;6.11;100.00
71770;BME280;66386;52.122;5.420;2024-03-02T04:38:36;100035.00;;;6.11;100.00
71770;BME280;66386;52.122;5.420;2024-03-02T04:41:04;100035.88;;;6.10;100.00
71770;BME280;66386;52.122;5.420;2024-03-02T04:43:32;100040.13;;;6.11;100.00
71770;BME280;66386;52.122;5.420;2024-03-02T04:45:59;100045.16;;;6.13;100.00
71770;BME280;66386;52.122;5.420;2024-03-02T04:48:26;100040.94;;;6.11;100.00
71770;BME280;66386;52.122;5.420;2024-03-02T04:50:53;100049.50;;;6.10;100.00
71770;BME280;66386;52.122;5.420;2024-03-02T04:53:20;100051.19;;;6.10;100.00
71770;BME280;66386;52.122;5.420;2024-03-02T04:55:49;100052.03;;;6.10;100.00
71770;BME280;66386;52.122;5.420;2024-03-02T04:58:44;100058.78;;;6.11;100.00
71770;BME280;66386;52.122;5.420;2024-03-02T05:01:11;100061.34;;;6.11;100.00
71770;BME280;66386;52.122;5.420;2024-03-02T05:03:37;100064.81;;;6.10;100.00
71770;BME280;66386;52.122;5.420;2024-03-02T05:06:04;100061.41;;;6.10;100.00
71770;BME280;66386;52.122;5.420;2024-03-02T05:08:30;100061.41;;;6.10;100.00
71770;BME280;66386;52.122;5.420;2024-03-02T05:10:57;100063.13;;;6.09;100.00
71770;BME280;66386;52.122;5.420;2024-03-02T05:13:43;100061.41;;;6.10;100.00
71770;BME280;66386;52.122;5.420;2024-03-02T05:16:10;100062.25;;;6.10;100.00
71770;BME280;66386;52.122;5.420;2024-03-02T05:18:38;100071.59;;;6.10;100.00
71770;BME280;66386;52.122;5.420;2024-03-02T05:21:05;100069.09;;;6.08;100.00
71770;BME280;66386;52.122;5.420;2024-03-02T05:23:31;100068.28;;;6.08;100.00
71770;BME280;66386;52.122;5.420;2024-03-02T05:25:58;100061.50;;;6.07;100.00
71770;BME280;66386;52.122;5.420;2024-03-02T05:28:24;100060.66;;;6.06;100.00
71770;BME280;66386;52.122;5.420;2024-03-02T05:30:51;100069.19;;;6.05;100.00
71770;BME280;66386;52.122;5.420;2024-03-02T05:33:17;100070.91;;;6.05;100.00
71770;BME280;66386;52.122;5.420;2024-03-02T05:35:44;100078.53;;;6.06;100.00
71770;BME280;66386;52.122;5.420;2024-03-02T05:38:10;100075.06;;;6.07;100.00
71770;BME280;66386;52.122;5.420;2024-03-02T05:40:37;100070.81;;;6.08;100.00
71770;BME280;66386;52.122;5.420;2024-03-02T05:43:03;100063.31;;;6.03;100.00
71770;BME280;66386;52.122;5.420;2024-03-02T05:45:30;100062.63;;;5.97;100.00
71770;BME280;66386;52.122;5.420;2024-03-02T05:47:57;100068.84;;;5.88;100.00
71770;BME280;66386;52.122;5.420;2024-03-02T05:50:23;100071.63;;;5.80;100.00
71770;BME280;66386;52.122;5.420;2024-03-02T05:52:50;100070.81;;;5.78;100.00
71770;BME280;66386;52.122;5.420;2024-03-02T05:55:16;100069.13;;;5.79;100.00
71770;BME280;66386;52.122;5.420;2024-03-02T05:57:43;100072.50;;;5.79;100.00
71770;BME280;66386;52.122;5.420;2024-03-02T06:00:09;100079.22;;;5.82;100.00
71770;BME280;66386;52.122;5.420;2024-03-02T06:02:40;100083.41;;;5.84;100.00
71770;BME280;66386;52.122;5.420;2024-03-02T06:05:07;100081.72;;;5.83;100.00
71770;BME280;66386;52.122;5.420;2024-03-02T06:07:33;100081.72;;;5.83;100.00
71770;BME280;66386;52.122;5.420;2024-03-02T06:10:00;100082.59;;;5.82;100.00
71770;BME280;66386;52.122;5.420;2024-03-02T06:12:27;100084.41;;;5.79;100.00
71770;BME280;66386;52.122;5.420;2024-03-02T06:14:53;100098.88;;;5.78;100.00
71770;BME280;66386;52.122;5.420;2024-03-02T06:17:20;100095.50;;;5.77;100.00
71770;BME280;66386;52.122;5.420;2024-03-02T06:19:46;100097.22;;;5.77;100.00
71770;BME280;66386;52.122;5.420;2024-03-02T06:22:14;100097.25;;;5.75;100.00
71770;BME280;66386;52.122;5.420;2024-03-02T06:24:40;100101.56;;;5.73;100.00
71770;BME280;66386;52.122;5.420;2024-03-02T06:27:07;100112.59;;;5.74;100.00
71770;BME280;66386;52.122;5.420;2024-03-02T06:29:33;100106.75;;;5.70;100.00
71770;BME280;66386;52.122;5.420;2024-03-02T06:32:00;100116.16;;;5.68;100.00
71770;BME280;66386;52.122;5.420;2024-03-02T06:34:27;100115.34;;;5.66;100.00
71770;BME280;66386;52.122;5.420;2024-03-02T06:36:53;100122.91;;;5.69;100.00
71770;BME280;66386;52.122;5.420;2024-03-02T06:39:20;100122.84;;;5.72;100.00
71770;BME280;66386;52.122;5.420;2024-03-02T06:41:46;100127.00;;;5.75;100.00
71770;BME280;66386;52.122;5.420;2024-03-02T06:44:16;100127.84;;;5.75;100.00
71770;BME280;66386;52.122;5.420;2024-03-02T06:46:42;100126.88;;;5.80;100.00
71770;BME280;66386;52.122;5.420;2024-03-02T06:49:08;100125.09;;;5.83;100.00
71770;BME280;66386;52.122;5.420;2024-03-02T06:51:36;100119.88;;;5.86;100.00
71770;BME280;66386;52.122;5.420;2024-03-02T06:54:03;100122.41;;;5.88;100.00
71770;BME280;66386;52.122;5.420;2024-03-02T06:56:30;100118.94;;;5.90;100.00
71770;BME280;66386;52.122;5.420;2024-03-02T06:58:57;100128.25;;;5.91;100.00
71770;BME280;66386;52.122;5.420;2024-03-02T07:01:23;100125.78;;;5.88;100.00
71770;BME280;66386;52.122;5.420;2024-03-02T07:03:52;100125.81;;;5.87;100.00
71770;BME280;66386;52.122;5.420;2024-03-02T07:06:19;100125.03;;;5.85;100.00
71770;BME280;66386;52.122;5.420;2024-03-02T07:08:46;100119.97;;;5.83;100.00
71770;BME280;66386;52.122;5.420;2024-03-02T07:11:12;100131.97;;;5.80;100.00
71770;BME280;66386;52.122;5.420;2024-03-02T07:13:39;100126.84;;;5.81;100.00
71770;BME280;66386;52.122;5.420;2024-03-02T07:16:05;100121.66;;;5.84;100.00
71770;BME280;66386;52.122;5.420;2024-03-02T07:18:50;100129.25;;;5.86;100.00
71770;BME280;66386;52.122;5.420;2024-03-02T07:21:18;100125.75;;;5.90;100.00
71770;BME280;66386;52.122;5.420;2024-03-02T07:23:45;100123.06;;;5.94;100.00
71770;BME280;66386;52.122;5.420;2024-03-02T07:26:12;100123.00;;;5.98;100.00
71770;BME280;66386;52.122;5.420;2024-03-02T07:28:41;100136.53;;;6.00;100.00
71770;BME280;66386;52.122;5.420;2024-03-02T07:31:08;100135.56;;;6.04;100.00
71770;BME280;66386;52.122;5.420;2024-03-02T07:33:36;100141.41;;;6.07;100.00
71770;BME280;66386;52.122;5.420;2024-03-02T07:36:03;100137.00;;;6.13;100.00
71770;BME280;66386;52.122;5.420;2024-03-02T07:38:31;100144.53;;;6.17;100.00
71770;BME280;66386;52.122;5.420;2024-03-02T07:40:58;100143.56;;;6.21;100.00
71770;BME280;66386;52.122;5.420;2024-03-02T07:43:25;100145.91;;;6.27;100.00
71770;BME280;66386;52.122;5.420;2024-03-02T07:45:52;100142.34;;;6.33;100.00
71770;BME280;66386;52.122;5.420;2024-03-02T07:48:19;100151.84;;;6.56;100.00
71770;BME280;66386;52.122;5.420;2024-03-02T07:50:45;100153.88;;;6.73;100.00
71770;BME280;66386;52.122;5.420;2024-03-02T07:53:12;100152.50;;;6.90;100.00
71770;BME280;66386;52.122;5.420;2024-03-02T07:55:39;100149.94;;;6.90;100.00
71770;BME280;66386;52.122;5.420;2024-03-02T07:58:06;100154.22;;;6.89;100.00
71770;BME280;66386;52.122;5.420;2024-03-02T08:00:33;100155.53;;;7.01;100.00
71770;BME280;66386;52.122;5.420;2024-03-02T08:03:00;100158.19;;;6.98;100.00
71770;BME280;66386;52.122;5.420;2024-03-02T08:05:27;100160.00;;;6.94;100.00
71770;BME280;66386;52.122;5.420;2024-03-02T08:07:53;100161.88;;;6.89;100.00
71770;BME280;66386;52.122;5.420;2024-03-02T08:10:20;100166.03;;;6.92;100.00
71770;BME280;66386;52.122;5.420;2024-03-02T08:12:46;100171.84;;;6.97;100.00
71770;BME280;66386;52.122;5.420;2024-03-02T08:15:13;100170.13;;;6.97;100.00
71770;BME280;66386;52.122;5.420;2024-03-02T08:17:40;100171.91;;;6.95;100.00
71770;BME280;66386;52.122;5.420;2024-03-02T08:20:12;100170.22;;;6.94;100.00
71770;BME280;66386;52.122;5.420;2024-03-02T08:22:38;100168.41;;;6.98;100.00
71770;BME280;66386;52.122;5.420;2024-03-02T08:25:09;100173.16;;;7.09;100.00
71770;BME280;66386;52.122;5.420;2024-03-02T08:27:36;100167.28;;;7.32;100.00
71770;BME280;66386;52.122;5.420;2024-03-02T08:30:03;100170.28;;;7.68;100.00
71770;BME280;66386;52.122;5.420;2024-03-02T08:32:33;100174.84;;;8.08;100.00
71770;BME280;66386;52.122;5.420;2024-03-02T08:35:00;100167.53;;;8.43;100.00
71770;BME280;66386;52.122;5.420;2024-03-02T08:37:27;100164.09;;;8.66;100.00
71770;BME280;66386;52.122;5.420;2024-03-02T08:39:54;100169.50;;;8.80;100.00
71770;BME280;66386;52.122;5.420;2024-03-02T08:42:21;100169.28;;;8.86;100.00
71770;BME280;66386;52.122;5.420;2024-03-02T08:44:48;100167.78;;;8.81;100.00
71770;BME280;66386;52.122;5.420;2024-03-02T08:47:14;100176.84;;;8.89;100.00
71770;BME280;66386;52.122;5.420;2024-03-02T08:49:41;100175.38;;;9.04;100.00
71770;BME280;66386;52.122;5.420;2024-03-02T08:52:08;100171.00;;;9.06;100.00
71770;BME280;66386;52.122;5.420;2024-03-02T08:54:35;100165.50;;;9.16;100.00
71770;BME280;66386;52.122;5.420;2024-03-02T08:57:02;100161.91;;;9.20;100.00
71770;BME280;66386;52.122;5.420;2024-03-02T08:59:28;100168.75;;;9.19;100.00
71770;BME280;66386;52.122;5.420;2024-03-02T09:01:57;100163.56;;;9.21;100.00
71770;BME280;66386;52.122;5.420;2024-03-02T09:04:24;100176.66;;;9.35;100.00
71770;BME280;66386;52.122;5.420;2024-03-02T09:06:53;100168.88;;;9.37;100.00
71770;BME280;66386;52.122;5.420;2024-03-02T09:09:20;100165.88;;;9.48;100.00
71770;BME280;66386;52.122;5.420;2024-03-02T09:11:46;100170.59;;;9.57;100.00
71770;BME280;66386;52.122;5.420;2024-03-02T09:14:15;100161.97;;;9.78;100.00
71770;BME280;66386;52.122;5.420;2024-03-02T09:16:42;100170.69;;;10.12;100.00
71770;BME280;66386;52.122;5.420;2024-03-02T09:19:09;100162.81;;;10.54;100.00
71770;BME280;66386;52.122;5.420;2024-03-02T09:21:36;100171.63;;;10.85;100.00
71770;BME280;66386;52.122;5.420;2024-03-02T09:24:03;100163.66;;;11.24;100.00
71770;BME280;66386;52.122;5.420;2024-03-02T09:26:30;100171.81;;;11.83;100.00
71770;BME280;66386;52.122;5.420;2024-03-02T09:28:56;100172.94;;;12.27;100.00
71770;BME280;66386;52.122;5.420;2024-03-02T09:31:23;100169.16;;;12.65;100.00
71770;BME280;66386;52.122;5.420;2024-03-02T09:33:49;100162.47;;;12.77;100.00
71770;BME280;66386;52.122;5.420;2024-03-02T09:36:20;100166.84;;;13.05;100.00
71770;BME280;66386;52.122;5.420;2024-03-02T09:38:48;100172.06;;;12.89;95.06
71770;BME280;66386;52.122;5.420;2024-03-02T09:41:16;100178.00;;;12.13;98.85
71770;BME280;66386;52.122;5.420;2024-03-02T09:43:43;100184.63;;;11.34;100.00
71770;BME280;66386;52.122;5.420;2024-03-02T09:46:10;100175.25;;;10.98;100.00
71770;BME280;66386;52.122;5.420;2024-03-02T09:48:37;100181.66;;;10.72;100.00
71770;BME280;66386;52.122;5.420;2024-03-02T09:51:04;100188.22;;;10.60;100.00
71770;BME280;66386;52.122;5.420;2024-03-02T09:53:32;100178.25;;;10.54;100.00
71770;BME280;66386;52.122;5.420;2024-03-02T09:55:59;100179.44;;;10.46;100.00
71770;BME280;66386;52.122;5.420;2024-03-02T09:58:26;100179.09;;;10.35;100.00
71770;BME280;66386;52.122;5.420;2024-03-02T10:00:53;100184.94;;;10.39;100.00
71770;BME280;66386;52.122;5.420;2024-03-02T10:03:19;100188.97;;;10.44;100.00
71770;BME280;66386;52.122;5.420;2024-03-02T10:05:47;100186.47;;;10.43;100.00
71770;BME280;66386;52.122;5.420;2024-03-02T10:08:14;100185.34;;;10.48;100.00
71770;BME280;66386;52.122;5.420;2024-03-02T10:10:41;100182.00;;;10.46;100.00
71770;BME280;66386;52.122;5.420;2024-03-02T10:13:12;100178.38;;;10.51;100.00
71770;BME280;66386;52.122;5.420;2024-03-02T10:15:40;100181.44;;;10.59;100.00
71770;BME280;66386;52.122;5.420;2024-03-02T10:18:11;100176.06;;;10.63;100.00
71770;BME280;66386;52.122;5.420;2024-03-02T10:20:39;100175.56;;;10.74;100.00
71770;BME280;66386;52.122;5.420;2024-03-02T10:23:14;100177.97;;;10.77;100.00
71770;BME280;66386;52.122;5.420;2024-03-02T10:25:44;100180.25;;;10.83;100.00
71770;BME280;66386;52.122;5.420;2024-03-02T10:28:23;100184.06;;;10.94;100.00
71770;BME280;66386;52.122;5.420;2024-03-02T10:30:49;100186.25;;;11.02;100.00
71770;BME280;66386;52.122;5.420;2024-03-02T10:33:17;100182.06;;;10.99;100.00
71770;BME280;66386;52.122;5.420;2024-03-02T10:35:44;100184.78;;;10.96;100.00
71770;BME280;66386;52.122;5.420;2024-03-02T10:38:11;100172.75;;;10.96;100.00
71770;BME280;66386;52.122;5.420;2024-03-02T10:40:38;100179.19;;;11.05;100.00
71770;BME280;66386;52.122;5.420;2024-03-02T10:43:04;100172.84;;;10.95;100.00
71770;BME280;66386;52.122;5.420;2024-03-02T10:45:32;100154.09;;;10.93;100.00
71770;BME280;66386;52.122;5.420;2024-03-02T10:48:01;100160.84;;;10.95;100.00
71770;BME280;66386;52.122;5.420;2024-03-02T10:50:28;100157.13;;;11.01;100.00
71770;BME280;66386;52.122;5.420;2024-03-02T10:52:56;100150.00;;;11.06;100.00
71770;BME280;66386;52.122;5.420;2024-03-02T10:55:22;100160.91;;;11.11;100.00
71770;BME280;66386;52.122;5.420;2024-03-02T10:57:54;100143.50;;;11.16;100.00
71770;BME280;66386;52.122;5.420;2024-03-02T11:00:25;100141.59;;;11.20;100.00
71770;BME280;66386;52.122;5.420;2024-03-02T11:02:58;100142.19;;;11.25;100.00
71770;BME280;66386;52.122;5.420;2024-03-02T11:05:33;100148.22;;;11.24;100.00
71770;BME280;66386;52.122;5.420;2024-03-02T11:08:07;100146.94;;;11.33;100.00
71770;BME280;66386;52.122;5.420;2024-03-02T11:10:35;100148.28;;;11.40;100.00
71770;BME280;66386;52.122;5.420;2024-03-02T11:13:09;100143.66;;;11.47;100.00
71770;BME280;66386;52.122;5.420;2024-03-02T11:15:35;100150.66;;;11.61;100.00
71770;BME280;66386;52.122;5.420;2024-03-02T11:18:05;100148.53;;;11.69;100.00
71770;BME280;66386;52.122;5.420;2024-03-02T11:20:39;100150.69;;;11.77;100.00
71770;BME280;66386;52.122;5.420;2024-03-02T11:23:07;100148.19;;;11.75;98.73
71770;BME280;66386;52.122;5.420;2024-03-02T11:25:35;100158.66;;;11.72;98.09
71770;BME280;66386;52.122;5.420;2024-03-02T11:28:04;100161.66;;;11.80;95.59
71770;BME280;66386;52.122;5.420;2024-03-02T11:35:43;100142.78;;;11.97;92.78
71770;BME280;66386;52.122;5.420;2024-03-02T11:38:13;100143.91;;;11.92;92.49
71770;BME280;66386;52.122;5.420;2024-03-02T11:40:40;100136.94;;;11.94;94.42
71770;BME280;66386;52.122;5.420;2024-03-02T11:43:07;100133.69;;;12.06;93.01
71770;BME280;66386;52.122;5.420;2024-03-02T11:45:37;100139.03;;;12.03;89.78
71770;BME280;66386;52.122;5.420;2024-03-02T11:48:15;100135.97;;;12.12;90.43
71770;BME280;66386;52.122;5.420;2024-03-02T11:50:47;100136.25;;;12.22;90.40
71770;BME280;66386;52.122;5.420;2024-03-02T11:53:14;100124.31;;;12.21;87.84
71770;BME280;66386;52.122;5.420;2024-03-02T11:55:41;100127.16;;;12.16;87.65
71770;BME280;66386;52.122;5.420;2024-03-02T11:58:10;100115.81;;;12.19;85.44
71770;BME280;66386;52.122;5.420;2024-03-02T12:00:36;100118.56;;;12.16;84.57
71770;BME280;66386;52.122;5.420;2024-03-02T12:03:07;100127.72;;;12.21;83.30
71770;BME280;66386;52.122;5.420;2024-03-02T12:05:35;100131.03;;;12.23;84.56
71770;BME280;66386;52.122;5.420;2024-03-02T12:08:04;100123.88;;;12.29;82.83
71770;BME280;66386;52.122;5.420;2024-03-02T12:10:31;100118.03;;;12.41;83.66
71770;BME280;66386;52.122;5.420;2024-03-02T12:13:04;100106.63;;;12.45;83.96
71770;BME280;66386;52.122;5.420;2024-03-02T12:15:35;100105.56;;;12.49;81.86
71770;BME280;66386;52.122;5.420;2024-03-02T12:18:04;100098.81;;;12.47;83.19
71770;BME280;66386;52.122;5.420;2024-03-02T12:20:32;100097.84;;;12.33;81.58
71770;BME280;66386;52.122;5.420;2024-03-02T12:23:01;100097.22;;;12.30;82.34
71770;BME280;66386;52.122;5.420;2024-03-02T12:25:30;100090.16;;;12.17;83.33
71770;BME280;66386;52.122;5.420;2024-03-02T12:27:59;100092.56;;;12.04;85.27
71770;BME280;66386;52.122;5.420;2024-03-02T12:30:30;100095.03;;;12.22;84.85
71770;BME280;66386;52.122;5.420;2024-03-02T12:32:57;100099.13;;;12.26;85.28
71770;BME280;66386;52.122;5.420;2024-03-02T12:35:25;100086.59;;;12.20;86.00
71770;BME280;66386;52.122;5.420;2024-03-02T12:37:53;100087.91;;;12.27;86.87
71770;BME280;66386;52.122;5.420;2024-03-02T12:40:21;100096.97;;;12.18;88.03
71770;BME280;66386;52.122;5.420;2024-03-02T12:42:50;100090.50;;;12.11;90.62
71770;BME280;66386;52.122;5.420;2024-03-02T12:45:17;100078.44;;;12.12;90.23
71770;BME280;66386;52.122;5.420;2024-03-02T12:47:51;100075.94;;;12.10;90.58
71770;BME280;66386;52.122;5.420;2024-03-02T12:50:18;100073.06;;;12.16;93.79
71770;BME280;66386;52.122;5.420;2024-03-02T12:52:55;100069.53;;;12.17;92.25
71770;BME280;66386;52.122;5.420;2024-03-02T12:55:22;100056.19;;;12.11;89.32
71770;BME280;66386;52.122;5.420;2024-03-02T12:57:51;100059.09;;;12.04;88.63
71770;BME280;66386;52.122;5.420;2024-03-02T13:00:19;100056.34;;;11.92;87.70
71770;BME280;66386;52.122;5.420;2024-03-02T13:02:46;100052.78;;;11.94;91.36